Terminal Aerodrome Forecast
Issued by NWS Jacksonville, FL

Home | Current Version | Previous Version | Text Only | Print | Product List | Glossary On
Versions: 1 2 3 4 5 6 7 8 9 10 11 12 13 14 15 16 17 18 19 20 21 22 23 24 25 26 27 28 29 30 31 32 33 34
946
FTUS42 KJAX 110520
TAFGNV
TAF
KGNV 110520Z 1106/1206 00000KT 6SM BR VCSH SCT009 OVC070
      TEMPO 1107/1109 2SM BR BKN009
     FM110900 00000KT 1SM BR VCSH OVC004
     FM111100 VRB04KT P6SM OVC007
     FM111600 02011KT P6SM OVC050=

USA.gov is the U.S. government's official web portal to all federal, state and local government web resources and services.